Weather observations for the past three days for
Paynesville, Paynesville Municipal Airport
Metric (Imperial)
Date Time (cdt) Wind (kph) Vis. (km) Weather Sky Cond. Temperature (ºC) Relative Humidity Wind Chill (°C) Heat Index (°C) Pressure Precipitation (cm)
Air Dwpt 6 hour altimeter (cm) sea level (mb) 1 hr 3 hr 6 hr
Max. Min.
02 13:15 SW 22 G 35 16.09 Fair CLR 17 0 32% 76.1 0.0
02 12:55 SW 20 G 33 16.09 Fair CLR 17 0 32% 76.12 0.0
02 12:35 SW 20 G 33 16.09 Fair CLR 16 -1 31% 76.15 0.0
02 12:15 SW 19 G 28 16.09 Fair CLR 15 -1 34% 76.17 0.0
02 11:55 SW 22 G 31 16.09 Fair CLR 15 -1 34% 76.2 0.0
02 11:35 SW 22 16.09 Fair CLR 14 -1 36% 76.23 0.0
02 11:16 SW 15 G 28 16.09 Fair CLR 14 -2 33% 76.25 0.0
02 10:55 S 17 G 26 16.09 Fair CLR 14 -2 33% 76.28 0.0
02 10:35 W 22 G 28 16.09 Fair CLR 13 -2 36% 76.3 0.0
02 10:15 W 19 16.09 Fair CLR 12 -2 38% 76.3 0.0
02 09:55 W 17 16.09 Partly Cloudy SCT090 12 -2 38% 76.33 0.0
02 09:35 SW 19 16.09 Partly Cloudy SCT090 11 -2 41% 76.35 0.0
02 09:15 W 17 16.09 Fair CLR 10 -2 43% 8 76.35 0.0
02 08:56 SW 11 16.09 Fair CLR 9 -1 50% 8 76.38 0.0
02 08:35 W 13 16.09 Fair CLR 8 -1 53% 6 76.38 0.0
02 08:15 W 17 16.09 Fair CLR 7 -1 57% 4 76.38 0.0
02 07:55 W 15 16.09 Fair CLR 6 -1 61% 3 76.4 0.0
02 07:35 W 7 16.09 Fair CLR 3 0 81% 1 76.4 0.0
02 07:15 W 7 16.09 Partly Cloudy SCT085 2 -1 81% 0 76.4 0.0
02 06:55 Calm 16.09 Fair CLR -1 -2 93% 76.4 0.0
02 06:36 W 6 16.09 Fair CLR -2 -3 93% 76.4 0.0
02 06:15 W 6 16.09 Fair CLR -2 -4 86% 76.4 0.0
02 05:55 W 6 16.09 Fair CLR -2 -4 86% 76.4 0.0
02 05:35 W 6 16.09 Fair CLR -2 -4 86% 76.43 0.0
02 05:15 W 7 16.09 Fair CLR -2 -4 86% -4 76.43 0.0
02 04:55 W 7 16.09 Fair CLR -2 -4 86% -4 76.43 0.0
02 04:35 W 7 16.09 Fair CLR -2 -4 86% -4 76.43 0.0
02 04:16 W 7 16.09 Fair CLR -1 -4 80% -3 76.43 0.0
02 03:55 W 6 16.09 Fair CLR -1 -3 86% 76.4 0.0
02 03:35 W 6 16.09 Fair CLR -1 -4 80% 76.4 0.0
02 02:55 W 7 16.09 Fair CLR -1 -4 80% -3 76.4 0.0
02 02:35 W 6 16.09 Fair CLR -1 -4 80% 76.4 0.0
02 02:15 W 6 16.09 Fair CLR -1 -4 80% 76.43 0.0
02 01:56 W 6 16.09 Fair CLR 0 -4 75% 76.43 0.0
02 01:35 W 7 16.09 Fair CLR 0 -4 75% -2 76.45 0.0
02 01:15 W 7 16.09 Fair CLR 0 -4 75% -2 76.45 0.0
02 00:55 W 7 16.09 Fair CLR 0 -4 75% -2 76.45 0.0
02 00:35 W 7 16.09 Fair CLR 0 -4 75% -2 76.43 0.0
02 00:15 W 7 16.09 Fair CLR 1 -3 75% -1 76.45 0.0
01 23:55 W 7 16.09 Fair CLR 1 -4 70% -1 76.45 0.0
01 23:36 W 6 16.09 Fair CLR 1 -3 75% 76.45 0.0
01 23:15 W 7 16.09 Fair CLR 1 -3 75% -1 76.45 0.0
01 22:55 W 7 16.09 Fair CLR 2 -3 70% 0 76.45 0.0
01 22:35 Calm 16.09 Fair CLR 2 -3 70% 76.45 0.0
01 22:15 Calm 16.09 Fair CLR 3 -3 65% 76.45 0.0
01 21:55 Calm 16.09 Fair CLR 3 -3 65% 76.45 0.0
01 21:35 Calm 16.09 Fair CLR 4 -4 56% 76.43 0.0
01 21:16 Calm 16.09 Fair CLR 6 -3 53% 76.43 0.0
01 20:55 Calm 16.09 Partly Cloudy SCT080 7 -4 46% 76.43 0.0
01 20:35 Calm 16.09 Overcast OVC080 9 -4 40% 76.4 0.0
01 20:15 Calm 16.09 Overcast OVC080 10 -5 35% 76.4 0.0
01 19:55 NW 7 16.09 Mostly Cloudy BKN080 10 -5 35% 9 76.4 0.0
01 19:35 NW 7 16.09 Mostly Cloudy BKN080 11 -6 30% 76.38 0.0
01 19:15 N 7 16.09 Overcast OVC080 11 -7 28% 76.38 0.0
01 18:56 N 6 16.09 Mostly Cloudy BKN080 12 -6 28% 76.38 0.0
01 18:35 N 6 16.09 Mostly Cloudy BKN080 12 -6 28% 76.4 0.0
01 18:15 NE 6 16.09 Mostly Cloudy BKN070 11 -6 30% 76.4 0.0
01 17:55 NE 11 16.09 Mostly Cloudy BKN070 12 -6 28% 76.4 0.0
01 17:35 NE 9 16.09 Mostly Cloudy BKN070 11 -5 32% 76.4 0.0
01 17:15 NE 9 16.09 Mostly Cloudy BKN070 12 -5 30% 76.43 0.0
01 16:55 NE 6 16.09 Partly Cloudy SCT070 11 -6 30% 76.4 0.0
01 16:36 NW 13 16.09 Mostly Cloudy BKN070 12 -5 30% 76.4 0.0
01 16:15 NW 9 16.09 Partly Cloudy SCT070 11 -5 32% 76.43 0.0
01 15:55 NW 6 16.09 Mostly Cloudy BKN070 11 -5 32% 76.43 0.0
01 15:35 Calm 16.09 Mostly Cloudy BKN070 10 -5 35% 76.45 0.0
01 15:15 NE 6 16.09 Partly Cloudy SCT060 10 -6 32% 76.45 0.0
01 14:55 W 20 16.09 Mostly Cloudy BKN060 9 -5 37% 6 76.45 0.0
01 14:35 Calm 16.09 Partly Cloudy SCT070 11 -5 32% 76.45 0.0
01 14:16 NW 6 16.09 Overcast OVC070 10 -5 35% 76.48 0.0
01 13:55 W 13 16.09 Overcast OVC065 9 -4 40% 7 76.48 0.0
01 13:35 NE 13 16.09 Mostly Cloudy BKN065 11 -4 35% 76.48 0.0
01 13:15 Calm 16.09 Mostly Cloudy BKN065 8 -5 40% 76.48 0.0
01 12:55 N 7 16.09 Overcast OVC065 8 -5 40% 7 76.48 0.0
01 12:35 Calm 16.09 Mostly Cloudy BKN055 8 -5 40% 76.5 0.0
01 12:15 N 11 16.09 Mostly Cloudy BKN055 8 -5 40% 6 76.5 0.0
01 11:56 NW 7 16.09 Mostly Cloudy BKN055 8 -4 43% 7 76.5 0.0
01 11:35 NW 11 16.09 Mostly Cloudy BKN055 7 -5 43% 5 76.5 0.0
01 11:15 N 7 16.09 Fair CLR 7 -4 46% 6 76.53 0.0
01 10:55 NE 7 16.09 Partly Cloudy SCT048 SCT060 8 -5 40% 7 76.5 0.0
01 10:35 E 9 16.09 Mostly Cloudy BKN060 7 -4 46% 5 76.53 0.0
01 10:15 NE 6 16.09 Overcast OVC050 7 -4 46% 76.53 0.0
01 09:55 E 7 16.09 Overcast OVC050 6 -3 53% 5 76.5 0.0
01 09:36 NE 7 16.09 Overcast OVC050 6 -2 57% 5 76.5 0.0
01 09:15 E 6 16.09 Mostly Cloudy BKN050 5 -3 57% 76.5 0.0
01 08:55 Calm 16.09 Partly Cloudy SCT050 5 -3 57% 76.48 0.0
01 08:35 NE 6 16.09 Partly Cloudy SCT050 4 -4 56% 76.48 0.0
01 08:15 Calm 16.09 Mostly Cloudy BKN050 3 -2 70% 76.48 0.0
01 07:55 Calm 16.09 Overcast OVC050 1 -2 81% 76.45 0.0
01 07:35 Calm 16.09 Mostly Cloudy BKN050 0 -2 87% 76.45 0.0
01 07:16 Calm 16.09 Partly Cloudy SCT050 0 -2 87% 76.43 0.0
01 06:55 Calm 16.09 Fair CLR -2 -3 93% 76.43 0.0
01 06:35 Calm 16.09 Fair CLR -2 -3 93% 76.4 0.0
01 06:15 Calm 16.09 Fair CLR -2 -3 93% 76.4 0.0
01 05:55 Calm 16.09 Fair CLR -1 -3 86% 76.38 0.0
01 05:35 Calm 16.09 Fair CLR -2 -3 93% 76.38 0.0
01 05:15 Calm 16.09 Fair CLR -1 -3 86% 76.38 0.0
01 04:56 Calm 16.09 Fair CLR 0 -3 80% 76.38 0.0
01 04:35 Calm 16.09 Partly Cloudy SCT065 1 -3 75% 76.35 0.0
01 04:15 NE 6 16.09 Partly Cloudy SCT065 1 -2 81% 76.35 0.0
01 03:55 N 7 16.09 Mostly Cloudy BKN065 2 -2 75% 0 76.35 0.0
01 03:35 Calm 16.09 Mostly Cloudy SCT050 BKN065 2 -2 75% 76.35 0.0
01 03:15 N 6 16.09 Overcast OVC055 2 -2 75% 76.35 0.0
01 02:55 NW 6 16.09 Overcast SCT060 OVC065 3 -2 70% 76.35 0.0
01 02:36 Calm 16.09 Overcast OVC070 3 -2 70% 76.35 0.0
01 02:15 Calm 16.09 Overcast OVC070 3 -2 70% 76.35 0.0
01 01:55 Calm 16.09 Overcast OVC060 3 -2 70% 76.35 0.0
01 01:35 Calm 16.09 Mostly Cloudy BKN060 3 -1 75% 76.35 0.0
01 01:15 N 9 16.09 Partly Cloudy SCT060 3 -1 75% 1 76.35 0.0
01 00:55 Calm 16.09 Fair CLR 2 0 87% 76.35 0.0
01 00:35 Calm 16.09 Fair CLR 2 2 100% 76.33 0.0
30 23:55 W 7 16.09 Partly Cloudy SCT055 2 2 100% 0 76.3 0.0
30 23:35 W 6 16.09 Partly Cloudy SCT055 SCT080 3 2 93% 76.3 0.0
30 23:15 W 6 16.09 Overcast BKN055 BKN070 OVC080 3 2 93% 76.3 0.0
30 22:55 W 6 16.09 Overcast BKN055 OVC080 3 3 100% 76.3 0.0
30 22:35 W 7 16.09 Overcast BKN055 BKN065 OVC085 3 2 93% 1 76.3 0.0
30 22:15 W 7 16.09 Mostly Cloudy BKN065 BKN075 3 2 93% 1 76.3 0.0
30 21:56 W 6 16.09 Mostly Cloudy BKN065 BKN075 4 3 93% 76.33 0.0
30 21:35 W 6 16.09 Overcast SCT050 OVC065 4 3 93% 76.3 0.0
30 21:15 W 7 16.09 Overcast BKN050 OVC065 4 3 93% 2 76.3 0.0
30 20:55 Calm 16.09 Overcast BKN050 OVC065 5 2 81% 76.28 0.0
30 20:35 Calm 16.09 Overcast OVC050 4 2 87% 76.28 0.0
30 20:15 SW 9 16.09 Overcast OVC060 5 2 81% 3 76.25 0.0
30 19:55 SW 9 16.09 Overcast SCT026 SCT037 OVC060 5 3 87% 3 76.25 0.0 0.03
30 19:36 S 11 16.09 Light Rain BKN024 BKN037 OVC060 5 3 87% 3 76.25 0.0 0.03
30 19:15 W 19 11.27 Light Rain SCT018 BKN024 OVC050 6 3 81% 3 76.28 0.0
30 18:55 W 13 16.09 Overcast SCT039 BKN065 OVC080 7 2 71% 5 76.25 0.0
30 18:35 SW 11 16.09 Overcast OVC080 8 2 66% 6 76.25 0.0
30 18:15 W 11 16.09 Overcast SCT060 OVC070 8 2 66% 6 76.25 0.0
30 17:55 W 19 16.09 Overcast SCT048 BKN070 OVC080 8 2 66% 5 76.25 0.0
30 17:35 W 26 16.09 Overcast BKN048 BKN055 OVC080 8 1 62% 5 76.28 0.0
30 17:16 NW 13 16.09 Overcast BKN048 OVC060 8 -1 53% 6 76.28 0.0
30 16:55 NW 11 16.09 Overcast SCT050 OVC070 9 -1 50% 8 76.25 0.0
30 16:35 NW 7 16.09 Overcast SCT047 BKN055 OVC075 9 -2 46% 8 76.28 0.0
30 16:15 NW 17 16.09 Overcast BKN049 OVC055 10 -2 43% 8 76.28 0.0
30 15:55 NW 15 16.09 Overcast BKN050 OVC075 9 -2 46% 7 76.3 0.0
30 15:35 NW 13 16.09 Overcast SCT047 BKN065 OVC070 9 -2 46% 7 76.3 0.0
30 15:15 NW 19 G 30 16.09 Mostly Cloudy SCT041 BKN050 BKN065 10 -1 47% 8 76.33 0.0
30 14:56 NW 19 G 26 16.09 Overcast SCT041 BKN048 OVC055 9 -1 50% 7 76.35 0.0
30 14:35 NW 17 G 30 16.09 Overcast BKN042 OVC055 9 -1 50% 7 76.35 0.0
30 14:15 N 19 G 28 16.09 Overcast SCT042 OVC055 9 -1 50% 7 76.38 0.0
30 13:55 NW 20 G 28 16.09 Mostly Cloudy SCT043 BKN050 BKN065 8 -1 53% 5 76.38 0.0
30 13:35 W 13 16.09 Overcast SCT041 BKN046 OVC075 8 -1 53% 6 76.4 0.0
30 13:15 NW 22 16.09 Mostly Cloudy SCT046 BKN065 BKN075 9 -2 46% 6 76.4 0.0
30 12:55 NW 22 G 30 16.09 Overcast SCT044 OVC070 8 -2 50% 5 76.43 0.0
30 12:36 N 19 G 28 16.09 Mostly Cloudy BKN044 BKN070 BKN110 8 -2 50% 5 76.43 0.0
30 12:15 NW 20 G 30 16.09 Mostly Cloudy BKN044 BKN070 8 -2 50% 5 76.43 0.0
30 11:55 NW 20 G 30 16.09 Partly Cloudy SCT042 SCT050 SCT070 8 -2 50% 5 76.45 0.0
30 11:35 N 13 16.09 Fair CLR 7 -2 53% 5 76.45 0.0
30 11:15 N 15 16.09 Fair CLR 6 -3 53% 3 76.45 0.0
30 10:55 N 20 11.27 Fair CLR 6 -3 53% 3 76.45 0.0
30 10:35 N 19 G 28 16.09 Fair CLR 5 -4 53% 2 76.48 0.0
30 10:16 N 17 16.09 Fair CLR 5 -4 53% 2 76.48 0.0
30 09:55 N 15 16.09 Partly Cloudy SCT095 4 -4 56% 1 76.48 0.0
30 09:35 N 17 G 26 16.09 Partly Cloudy SCT095 4 -4 56% 1 76.48 0.0
30 09:15 N 13 16.09 Fair CLR 3 -3 65% 0 76.48 0.0
30 08:55 N 13 16.09 Fair CLR 2 -4 65% -1 76.48 0.0
30 08:35 N 19 16.09 Fair CLR 2 -4 65% -2 76.5 0.0
30 08:15 N 11 16.09 Fair CLR 2 -4 65% -1 76.48 0.0
30 07:56 N 13 16.09 Fair CLR 1 -4 70% -2 76.48 0.0
30 07:35 N 11 16.09 Fair CLR 0 -4 75% -3 76.48 0.0
30 07:15 N 13 16.09 Fair CLR 0 -4 75% -4 76.48 0.0
30 06:55 NW 9 16.09 Fair CLR -1 -4 80% -4 76.48 0.0
30 06:35 NW 11 16.09 Fair CLR -1 -4 80% -4 76.48 0.0
30 06:15 NW 13 16.09 Fair CLR -1 -4 80% -5 76.48 0.0
30 05:55 NW 7 16.09 Fair CLR -1 -4 80% -3 76.48 0.0
30 05:36 NW 9 16.09 Fair CLR -1 -4 80% -4 76.48 0.0
30 05:15 NW 9 16.09 Fair CLR -1 -4 80% -4 76.48 0.0
30 04:55 NW 7 16.09 Fair CLR -1 -4 80% -3 76.48 0.0
30 04:35 NW 7 16.09 Fair CLR -2 -4 86% -4 76.48 0.0
30 04:15 W 7 16.09 Fair CLR -2 -4 86% -4 76.48 0.0
30 03:55 NW 6 16.09 Fair CLR 0 -4 75% 76.45 0.0
30 03:35 Calm 16.09 Fair CLR -1 -4 80% 76.45 0.0
30 03:16 Calm 16.09 Fair CLR -1 -4 80% 76.43 0.0
30 02:55 Calm 16.09 Fair CLR 0 -3 80% 76.43 0.0
30 02:35 N 9 16.09 Fair CLR 1 -3 75% -2 76.43 0.0
30 02:15 N 6 16.09 Fair CLR 1 -3 75% 76.43 0.0
30 01:55 N 6 16.09 Fair CLR 1 -3 75% 76.43 0.0
30 01:35 N 9 16.09 Fair CLR 1 -3 75% -2 76.43 0.0
30 01:15 N 6 16.09 Fair CLR 2 -3 70% 76.45 0.0
30 00:56 NW 7 16.09 Fair CLR 1 -3 75% -1 76.45 0.0
30 00:35 Calm 16.09 Fair CLR 2 -3 70% 76.45 0.0
30 00:15 NW 9 16.09 Fair CLR 1 -3 75% -2 76.43 0.0
29 23:55 W 11 16.09 Fair CLR 1 -3 75% -2 76.43 0.0
29 23:35 NW 6 16.09 Fair CLR 4 -3 61% 76.4 0.0
29 23:15 N 7 16.09 Fair CLR 4 -3 61% 2 76.4 0.0
29 22:55 N 7 16.09 Fair CLR 4 -3 61% 2 76.38 0.0
29 22:36 N 7 16.09 Fair CLR 5 -3 57% 4 76.4 0.0
29 22:15 N 11 16.09 Fair CLR 5 -3 57% 3 76.38 0.0
29 21:55 N 13 16.09 Fair CLR 6 -3 53% 4 76.38 0.0
29 21:35 N 11 16.09 Fair CLR 6 -2 57% 4 76.35 0.0
29 21:15 NW 9 16.09 Fair CLR 7 -2 53% 5 76.35 0.0
29 20:55 N 11 16.09 Fair CLR 7 -2 53% 5 76.33 0.0
29 20:35 NW 7 16.09 Fair CLR 8 -2 50% 7 76.3 0.0
29 20:16 NW 7 16.09 Fair CLR 8 -2 50% 7 76.3 0.0
29 19:55 NW 9 16.09 Fair CLR 9 -2 46% 8 76.28 0.0
29 19:35 N 15 G 28 16.09 Fair CLR 10 -2 43% 8 76.28 0.0
29 19:15 N 15 16.09 Fair CLR 10 -2 43% 8 76.25 0.0
29 18:55 N 15 G 28 16.09 Fair CLR 11 -2 41% 76.28 0.0
29 18:35 NW 19 G 26 16.09 Partly Cloudy SCT070 11 -2 41% 76.28 0.0
29 18:15 NW 15 G 20 16.09 Partly Cloudy SCT070 11 -2 41% 76.28 0.0
29 17:56 NW 19 G 28 16.09 Partly Cloudy SCT070 SCT080 11 -2 41% 76.28 0.0
29 17:35 NW 24 G 30 16.09 Partly Cloudy SCT060 SCT075 11 -1 44% 76.28 0.0
29 17:15 N 22 G 35 16.09 Mostly Cloudy SCT060 BKN075 12 -2 38% 76.28 0.0
29 16:55 NW 15 G 31 16.09 Mostly Cloudy SCT065 SCT075 BKN080 12 -2 38% 76.28 0.0
29 16:35 NW 15 16.09 Mostly Cloudy SCT070 BKN085 11 -2 41% 76.3 0.0
29 16:15 NW 11 16.09 Overcast SCT060 OVC080 11 -2 41% 76.3 0.0
29 15:55 NW 17 G 26 16.09 Overcast SCT060 BKN080 OVC090 11 -2 41% 76.3 0.0
29 15:36 NW 11 16.09 Overcast SCT055 SCT070 OVC085 10 -2 43% 9 76.33 0.0
29 15:15 NW 22 G 28 16.09 Mostly Cloudy SCT055 SCT075 BKN085 12 -2 38% 76.33 0.0
29 14:55 NW 11 16.09 Mostly Cloudy SCT050 SCT065 BKN085 10 -2 43% 9 76.35 0.0
29 14:35 NW 19 16.09 Mostly Cloudy SCT050 BKN070 BKN085 12 -1 41% 76.35 0.0
29 14:15 Calm 16.09 Mostly Cloudy SCT050 BKN070 BKN095 10 -2 43% 76.35 0.0
29 13:55 W 15 16.09 Mostly Cloudy SCT060 BKN070 BKN095 10 -2 43% 8 76.38 0.0
29 13:35 NW 9 G 30 16.09 Mostly Cloudy BKN070 11 -2 41% 76.38 0.0
Date Time (cdt) Wind (kph) Vis. (km) Weather Sky Cond. Air Dwpt Max. Min. Relative Humidity Wind Chill (°C) Heat Index (°C) altimeter (cm) sea level (mb) 1 hr 3 hr 6 hr
6 hour
Temperature (ºC) Pressure Precipitation (cm)